sensor_id;sensor_type;location;lat;lon;timestamp;temperature;humidity
21104;DHT22;10710;53.398;-1.514;2023-03-14T00:00:33;7.00;99.90
21104;DHT22;10710;53.398;-1.514;2023-03-14T00:02:58;7.00;99.90
21104;DHT22;10710;53.398;-1.514;2023-03-14T00:05:24;7.10;99.90
21104;DHT22;10710;53.398;-1.514;2023-03-14T00:07:50;7.00;99.90
21104;DHT22;10710;53.398;-1.514;2023-03-14T00:10:16;7.00;99.90
21104;DHT22;10710;53.398;-1.514;2023-03-14T00:12:42;7.10;99.90
21104;DHT22;10710;53.398;-1.514;2023-03-14T00:15:09;7.00;99.90
21104;DHT22;10710;53.398;-1.514;2023-03-14T00:17:35;6.90;99.90
21104;DHT22;10710;53.398;-1.514;2023-03-14T00:20:02;6.90;99.90
21104;DHT22;10710;53.398;-1.514;2023-03-14T00:22:30;6.90;99.90
21104;DHT22;10710;53.398;-1.514;2023-03-14T00:24:57;6.80;99.90
21104;DHT22;10710;53.398;-1.514;2023-03-14T00:27:22;7.00;99.90
21104;DHT22;10710;53.398;-1.514;2023-03-14T00:29:48;7.00;99.90
21104;DHT22;10710;53.398;-1.514;2023-03-14T00:32:14;7.00;99.90
21104;DHT22;10710;53.398;-1.514;2023-03-14T00:34:39;6.80;99.90
21104;DHT22;10710;53.398;-1.514;2023-03-14T00:37:05;6.70;99.90
21104;DHT22;10710;53.398;-1.514;2023-03-14T00:39:31;6.70;99.90
21104;DHT22;10710;53.398;-1.514;2023-03-14T00:41:57;6.70;99.90
21104;DHT22;10710;53.398;-1.514;2023-03-14T00:44:23;6.70;99.90
21104;DHT22;10710;53.398;-1.514;2023-03-14T00:46:49;6.70;99.90
21104;DHT22;10710;53.398;-1.514;2023-03-14T00:49:15;6.80;99.90
21104;DHT22;10710;53.398;-1.514;2023-03-14T00:51:42;6.80;99.90
21104;DHT22;10710;53.398;-1.514;2023-03-14T00:54:08;6.90;99.90
21104;DHT22;10710;53.398;-1.514;2023-03-14T00:56:34;7.00;99.90
21104;DHT22;10710;53.398;-1.514;2023-03-14T00:58:59;7.00;99.90
21104;DHT22;10710;53.398;-1.514;2023-03-14T01:01:25;7.00;99.90
21104;DHT22;10710;53.398;-1.514;2023-03-14T01:03:52;6.90;99.90
21104;DHT22;10710;53.398;-1.514;2023-03-14T01:06:24;6.90;99.90
21104;DHT22;10710;53.398;-1.514;2023-03-14T01:08:50;6.90;99.90
21104;DHT22;10710;53.398;-1.514;2023-03-14T01:11:27;7.00;99.90
21104;DHT22;10710;53.398;-1.514;2023-03-14T01:13:54;6.80;99.90
21104;DHT22;10710;53.398;-1.514;2023-03-14T01:16:22;6.80;99.90
21104;DHT22;10710;53.398;-1.514;2023-03-14T01:18:49;6.80;99.90
21104;DHT22;10710;53.398;-1.514;2023-03-14T01:21:26;6.70;99.90
21104;DHT22;10710;53.398;-1.514;2023-03-14T01:23:54;6.60;99.90
21104;DHT22;10710;53.398;-1.514;2023-03-14T01:26:22;6.50;99.90
21104;DHT22;10710;53.398;-1.514;2023-03-14T01:28:50;6.50;99.90
21104;DHT22;10710;53.398;-1.514;2023-03-14T01:31:16;6.40;99.90
21104;DHT22;10710;53.398;-1.514;2023-03-14T01:33:42;6.40;99.90
21104;DHT22;10710;53.398;-1.514;2023-03-14T01:36:27;6.40;99.90
21104;DHT22;10710;53.398;-1.514;2023-03-14T01:39:11;6.30;99.90
21104;DHT22;10710;53.398;-1.514;2023-03-14T01:41:57;6.10;99.90
21104;DHT22;10710;53.398;-1.514;2023-03-14T01:44:56;6.10;99.90
21104;DHT22;10710;53.398;-1.514;2023-03-14T01:47:41;6.10;99.90
21104;DHT22;10710;53.398;-1.514;2023-03-14T01:50:25;6.30;99.90
21104;DHT22;10710;53.398;-1.514;2023-03-14T01:53:09;6.30;99.90
21104;DHT22;10710;53.398;-1.514;2023-03-14T01:55:54;6.30;99.90
21104;DHT22;10710;53.398;-1.514;2023-03-14T01:58:41;6.30;99.90
21104;DHT22;10710;53.398;-1.514;2023-03-14T02:01:29;6.20;99.90
21104;DHT22;10710;53.398;-1.514;2023-03-14T02:04:14;6.10;99.90
21104;DHT22;10710;53.398;-1.514;2023-03-14T02:07:12;6.10;99.90
21104;DHT22;10710;53.398;-1.514;2023-03-14T02:09:59;6.00;99.90
21104;DHT22;10710;53.398;-1.514;2023-03-14T02:12:45;6.00;99.90
21104;DHT22;10710;53.398;-1.514;2023-03-14T02:15:30;6.00;99.90
21104;DHT22;10710;53.398;-1.514;2023-03-14T02:18:16;6.10;99.90
21104;DHT22;10710;53.398;-1.514;2023-03-14T02:21:13;6.00;99.90
21104;DHT22;10710;53.398;-1.514;2023-03-14T02:24:39;5.80;99.90
21104;DHT22;10710;53.398;-1.514;2023-03-14T02:27:26;5.70;99.90
21104;DHT22;10710;53.398;-1.514;2023-03-14T02:30:12;5.60;99.90
21104;DHT22;10710;53.398;-1.514;2023-03-14T02:36:01;5.50;99.90
21104;DHT22;10710;53.398;-1.514;2023-03-14T02:38:47;5.60;99.90
21104;DHT22;10710;53.398;-1.514;2023-03-14T02:41:34;5.60;99.90
21104;DHT22;10710;53.398;-1.514;2023-03-14T02:44:18;5.70;99.90
21104;DHT22;10710;53.398;-1.514;2023-03-14T02:47:04;5.80;99.90
21104;DHT22;10710;53.398;-1.514;2023-03-14T02:49:48;5.70;99.90
21104;DHT22;10710;53.398;-1.514;2023-03-14T02:52:33;5.60;99.90
21104;DHT22;10710;53.398;-1.514;2023-03-14T02:55:22;5.40;99.90
21104;DHT22;10710;53.398;-1.514;2023-03-14T02:58:06;5.40;99.90
21104;DHT22;10710;53.398;-1.514;2023-03-14T03:00:50;5.40;99.90
21104;DHT22;10710;53.398;-1.514;2023-03-14T03:03:34;5.50;99.90
21104;DHT22;10710;53.398;-1.514;2023-03-14T03:06:19;5.50;99.90
21104;DHT22;10710;53.398;-1.514;2023-03-14T03:09:03;5.50;99.90
21104;DHT22;10710;53.398;-1.514;2023-03-14T03:11:47;5.40;99.90
21104;DHT22;10710;53.398;-1.514;2023-03-14T03:14:31;5.40;99.90
21104;DHT22;10710;53.398;-1.514;2023-03-14T03:17:15;5.40;99.90
21104;DHT22;10710;53.398;-1.514;2023-03-14T03:20:00;5.50;99.90
21104;DHT22;10710;53.398;-1.514;2023-03-14T03:22:44;5.60;99.90
21104;DHT22;10710;53.398;-1.514;2023-03-14T03:25:29;5.50;99.90
21104;DHT22;10710;53.398;-1.514;2023-03-14T03:28:14;5.50;99.90
21104;DHT22;10710;53.398;-1.514;2023-03-14T03:30:58;5.40;99.90
21104;DHT22;10710;53.398;-1.514;2023-03-14T03:33:42;5.40;99.90
21104;DHT22;10710;53.398;-1.514;2023-03-14T03:36:26;5.40;99.90
21104;DHT22;10710;53.398;-1.514;2023-03-14T03:39:11;5.50;99.90
21104;DHT22;10710;53.398;-1.514;2023-03-14T03:41:55;5.40;99.90
21104;DHT22;10710;53.398;-1.514;2023-03-14T03:44:40;5.20;99.90
21104;DHT22;10710;53.398;-1.514;2023-03-14T03:47:24;5.30;99.90
21104;DHT22;10710;53.398;-1.514;2023-03-14T03:50:09;5.30;99.90
21104;DHT22;10710;53.398;-1.514;2023-03-14T03:52:54;5.20;99.90
21104;DHT22;10710;53.398;-1.514;2023-03-14T03:55:41;5.10;99.90
21104;DHT22;10710;53.398;-1.514;2023-03-14T03:58:26;5.10;99.90
21104;DHT22;10710;53.398;-1.514;2023-03-14T04:01:11;4.90;99.90
21104;DHT22;10710;53.398;-1.514;2023-03-14T04:03:55;4.90;99.90
21104;DHT22;10710;53.398;-1.514;2023-03-14T04:06:39;4.90;99.90
21104;DHT22;10710;53.398;-1.514;2023-03-14T04:09:24;4.80;99.90
21104;DHT22;10710;53.398;-1.514;2023-03-14T04:12:08;4.80;99.90
21104;DHT22;10710;53.398;-1.514;2023-03-14T04:14:55;4.80;99.90
21104;DHT22;10710;53.398;-1.514;2023-03-14T04:17:39;4.80;99.90
21104;DHT22;10710;53.398;-1.514;2023-03-14T04:20:23;4.80;99.90
21104;DHT22;10710;53.398;-1.514;2023-03-14T04:23:08;4.60;99.90
21104;DHT22;10710;53.398;-1.514;2023-03-14T04:25:52;4.50;99.90
21104;DHT22;10710;53.398;-1.514;2023-03-14T04:28:37;4.50;99.90
21104;DHT22;10710;53.398;-1.514;2023-03-14T04:31:23;4.60;99.90
21104;DHT22;10710;53.398;-1.514;2023-03-14T04:34:07;4.70;99.90
21104;DHT22;10710;53.398;-1.514;2023-03-14T04:36:51;4.60;99.90
21104;DHT22;10710;53.398;-1.514;2023-03-14T04:39:36;4.70;99.90
21104;DHT22;10710;53.398;-1.514;2023-03-14T04:42:20;4.80;99.90
21104;DHT22;10710;53.398;-1.514;2023-03-14T04:45:05;4.70;99.90
21104;DHT22;10710;53.398;-1.514;2023-03-14T04:47:49;4.70;99.90
21104;DHT22;10710;53.398;-1.514;2023-03-14T04:50:33;4.80;99.90
21104;DHT22;10710;53.398;-1.514;2023-03-14T04:53:18;4.90;99.90
21104;DHT22;10710;53.398;-1.514;2023-03-14T04:56:03;4.90;99.90
21104;DHT22;10710;53.398;-1.514;2023-03-14T04:58:47;5.00;99.90
21104;DHT22;10710;53.398;-1.514;2023-03-14T05:01:32;5.00;99.90
21104;DHT22;10710;53.398;-1.514;2023-03-14T05:04:16;5.10;99.90
21104;DHT22;10710;53.398;-1.514;2023-03-14T05:07:00;5.10;99.90
21104;DHT22;10710;53.398;-1.514;2023-03-14T05:09:44;5.00;99.90
21104;DHT22;10710;53.398;-1.514;2023-03-14T05:12:29;4.90;99.90
21104;DHT22;10710;53.398;-1.514;2023-03-14T05:15:13;4.90;99.90
21104;DHT22;10710;53.398;-1.514;2023-03-14T05:17:57;4.70;99.90
21104;DHT22;10710;53.398;-1.514;2023-03-14T05:20:41;4.60;99.90
21104;DHT22;10710;53.398;-1.514;2023-03-14T05:23:27;4.70;99.90
21104;DHT22;10710;53.398;-1.514;2023-03-14T05:26:12;4.70;99.90
21104;DHT22;10710;53.398;-1.514;2023-03-14T05:28:56;4.70;99.90
21104;DHT22;10710;53.398;-1.514;2023-03-14T05:31:40;4.70;99.90
21104;DHT22;10710;53.398;-1.514;2023-03-14T05:34:24;4.70;99.90
21104;DHT22;10710;53.398;-1.514;2023-03-14T05:37:08;4.60;99.90
21104;DHT22;10710;53.398;-1.514;2023-03-14T05:39:53;4.60;99.90
21104;DHT22;10710;53.398;-1.514;2023-03-14T05:42:37;4.60;99.90
21104;DHT22;10710;53.398;-1.514;2023-03-14T05:45:21;4.60;99.90
21104;DHT22;10710;53.398;-1.514;2023-03-14T05:48:06;4.60;99.90
21104;DHT22;10710;53.398;-1.514;2023-03-14T05:50:57;4.60;99.90
21104;DHT22;10710;53.398;-1.514;2023-03-14T05:53:43;4.50;99.90
21104;DHT22;10710;53.398;-1.514;2023-03-14T05:56:27;4.60;99.90
21104;DHT22;10710;53.398;-1.514;2023-03-14T05:59:11;4.60;99.90
21104;DHT22;10710;53.398;-1.514;2023-03-14T06:01:57;4.60;99.90
21104;DHT22;10710;53.398;-1.514;2023-03-14T06:04:42;4.70;99.90
21104;DHT22;10710;53.398;-1.514;2023-03-14T06:07:26;4.70;99.90
21104;DHT22;10710;53.398;-1.514;2023-03-14T06:10:10;4.90;99.90
21104;DHT22;10710;53.398;-1.514;2023-03-14T06:12:54;4.90;99.90
21104;DHT22;10710;53.398;-1.514;2023-03-14T06:15:38;4.90;99.90
21104;DHT22;10710;53.398;-1.514;2023-03-14T06:18:23;4.80;99.90
21104;DHT22;10710;53.398;-1.514;2023-03-14T06:21:07;4.90;99.90
21104;DHT22;10710;53.398;-1.514;2023-03-14T06:23:51;4.90;99.90
21104;DHT22;10710;53.398;-1.514;2023-03-14T06:26:35;4.80;99.90
21104;DHT22;10710;53.398;-1.514;2023-03-14T06:29:20;4.80;99.90
21104;DHT22;10710;53.398;-1.514;2023-03-14T06:32:04;4.60;99.90
21104;DHT22;10710;53.398;-1.514;2023-03-14T06:34:49;4.70;99.90
21104;DHT22;10710;53.398;-1.514;2023-03-14T06:37:33;4.60;99.90
21104;DHT22;10710;53.398;-1.514;2023-03-14T06:40:18;4.60;99.90
21104;DHT22;10710;53.398;-1.514;2023-03-14T06:43:02;4.50;99.90
21104;DHT22;10710;53.398;-1.514;2023-03-14T06:45:47;4.30;99.90
21104;DHT22;10710;53.398;-1.514;2023-03-14T06:48:31;4.40;99.90
21104;DHT22;10710;53.398;-1.514;2023-03-14T06:51:15;4.30;99.90
21104;DHT22;10710;53.398;-1.514;2023-03-14T06:53:59;4.30;99.90
21104;DHT22;10710;53.398;-1.514;2023-03-14T06:56:43;4.20;99.90
21104;DHT22;10710;53.398;-1.514;2023-03-14T06:59:28;4.10;99.90
21104;DHT22;10710;53.398;-1.514;2023-03-14T07:02:12;4.10;99.90
21104;DHT22;10710;53.398;-1.514;2023-03-14T07:04:57;4.10;99.90
21104;DHT22;10710;53.398;-1.514;2023-03-14T07:07:41;4.10;99.90
21104;DHT22;10710;53.398;-1.514;2023-03-14T07:10:26;4.00;99.90
21104;DHT22;10710;53.398;-1.514;2023-03-14T07:13:10;4.00;99.90
21104;DHT22;10710;53.398;-1.514;2023-03-14T07:15:54;4.10;99.90
21104;DHT22;10710;53.398;-1.514;2023-03-14T07:18:38;4.00;99.90
21104;DHT22;10710;53.398;-1.514;2023-03-14T07:21:23;4.00;99.90
21104;DHT22;10710;53.398;-1.514;2023-03-14T07:24:08;4.00;99.90
21104;DHT22;10710;53.398;-1.514;2023-03-14T07:26:52;4.00;99.90
21104;DHT22;10710;53.398;-1.514;2023-03-14T07:29:37;4.10;99.90
21104;DHT22;10710;53.398;-1.514;2023-03-14T07:32:21;4.20;99.90
21104;DHT22;10710;53.398;-1.514;2023-03-14T07:35:05;4.20;99.90
21104;DHT22;10710;53.398;-1.514;2023-03-14T07:37:50;4.30;99.90
21104;DHT22;10710;53.398;-1.514;2023-03-14T07:40:34;4.30;99.90
21104;DHT22;10710;53.398;-1.514;2023-03-14T07:43:18;4.30;99.90
21104;DHT22;10710;53.398;-1.514;2023-03-14T07:46:02;4.40;99.90
21104;DHT22;10710;53.398;-1.514;2023-03-14T07:48:47;4.50;99.90
21104;DHT22;10710;53.398;-1.514;2023-03-14T07:51:31;4.60;99.90
21104;DHT22;10710;53.398;-1.514;2023-03-14T07:54:16;4.60;99.90
21104;DHT22;10710;53.398;-1.514;2023-03-14T07:57:00;4.60;99.90
21104;DHT22;10710;53.398;-1.514;2023-03-14T07:59:44;4.60;99.90
21104;DHT22;10710;53.398;-1.514;2023-03-14T08:02:28;4.60;99.90
21104;DHT22;10710;53.398;-1.514;2023-03-14T08:05:13;4.60;99.90
21104;DHT22;10710;53.398;-1.514;2023-03-14T08:07:58;4.70;99.90
21104;DHT22;10710;53.398;-1.514;2023-03-14T08:10:43;4.80;99.90
21104;DHT22;10710;53.398;-1.514;2023-03-14T08:13:27;5.00;99.90
21104;DHT22;10710;53.398;-1.514;2023-03-14T08:16:12;5.10;99.90
21104;DHT22;10710;53.398;-1.514;2023-03-14T08:18:56;5.30;99.90
21104;DHT22;10710;53.398;-1.514;2023-03-14T08:21:41;5.40;99.90
21104;DHT22;10710;53.398;-1.514;2023-03-14T08:24:25;5.60;99.90
21104;DHT22;10710;53.398;-1.514;2023-03-14T08:27:10;5.50;99.90
21104;DHT22;10710;53.398;-1.514;2023-03-14T08:29:54;5.50;99.90
21104;DHT22;10710;53.398;-1.514;2023-03-14T08:32:38;5.50;99.90
21104;DHT22;10710;53.398;-1.514;2023-03-14T08:35:23;5.50;99.90
21104;DHT22;10710;53.398;-1.514;2023-03-14T08:38:07;5.60;99.90
21104;DHT22;10710;53.398;-1.514;2023-03-14T08:40:56;5.60;99.90
21104;DHT22;10710;53.398;-1.514;2023-03-14T08:43:41;5.80;99.90
21104;DHT22;10710;53.398;-1.514;2023-03-14T08:46:26;5.90;99.90
21104;DHT22;10710;53.398;-1.514;2023-03-14T08:49:10;6.10;99.90
21104;DHT22;10710;53.398;-1.514;2023-03-14T08:51:54;6.10;99.90
21104;DHT22;10710;53.398;-1.514;2023-03-14T08:54:39;6.10;99.90
21104;DHT22;10710;53.398;-1.514;2023-03-14T08:57:23;6.10;99.90
21104;DHT22;10710;53.398;-1.514;2023-03-14T09:00:11;6.00;99.90
21104;DHT22;10710;53.398;-1.514;2023-03-14T09:02:59;6.00;99.90
21104;DHT22;10710;53.398;-1.514;2023-03-14T09:05:43;6.00;99.90
21104;DHT22;10710;53.398;-1.514;2023-03-14T09:08:27;6.20;99.90
21104;DHT22;10710;53.398;-1.514;2023-03-14T09:11:12;6.30;99.90
21104;DHT22;10710;53.398;-1.514;2023-03-14T09:13:57;6.20;99.90
21104;DHT22;10710;53.398;-1.514;2023-03-14T09:16:41;6.10;99.90
21104;DHT22;10710;53.398;-1.514;2023-03-14T09:19:25;6.10;99.90
21104;DHT22;10710;53.398;-1.514;2023-03-14T09:22:09;6.20;99.90
21104;DHT22;10710;53.398;-1.514;2023-03-14T09:24:53;6.10;99.90
21104;DHT22;10710;53.398;-1.514;2023-03-14T09:27:37;6.30;99.90
21104;DHT22;10710;53.398;-1.514;2023-03-14T09:30:22;6.40;99.90
21104;DHT22;10710;53.398;-1.514;2023-03-14T09:33:06;6.40;99.90
21104;DHT22;10710;53.398;-1.514;2023-03-14T09:35:50;6.40;99.90
21104;DHT22;10710;53.398;-1.514;2023-03-14T09:38:34;6.40;99.90
21104;DHT22;10710;53.398;-1.514;2023-03-14T09:41:31;6.40;99.90
21104;DHT22;10710;53.398;-1.514;2023-03-14T09:45:03;6.30;99.90
21104;DHT22;10710;53.398;-1.514;2023-03-14T09:47:50;6.20;99.90
21104;DHT22;10710;53.398;-1.514;2023-03-14T09:50:43;6.10;99.90
21104;DHT22;10710;53.398;-1.514;2023-03-14T09:53:45;6.00;99.90
21104;DHT22;10710;53.398;-1.514;2023-03-14T09:56:32;6.00;99.90
21104;DHT22;10710;53.398;-1.514;2023-03-14T09:59:17;6.10;99.90
21104;DHT22;10710;53.398;-1.514;2023-03-14T10:02:10;6.10;99.90
21104;DHT22;10710;53.398;-1.514;2023-03-14T10:04:56;6.10;99.90
21104;DHT22;10710;53.398;-1.514;2023-03-14T10:07:40;6.20;99.90
21104;DHT22;10710;53.398;-1.514;2023-03-14T10:10:26;6.40;99.90
21104;DHT22;10710;53.398;-1.514;2023-03-14T10:13:27;6.40;99.90
21104;DHT22;10710;53.398;-1.514;2023-03-14T10:16:13;6.50;99.90
21104;DHT22;10710;53.398;-1.514;2023-03-14T10:19:16;6.60;99.90
21104;DHT22;10710;53.398;-1.514;2023-03-14T10:22:02;6.80;99.90
21104;DHT22;10710;53.398;-1.514;2023-03-14T10:24:55;7.00;99.90
21104;DHT22;10710;53.398;-1.514;2023-03-14T10:27:41;7.20;99.90
21104;DHT22;10710;53.398;-1.514;2023-03-14T10:30:44;7.10;99.90
21104;DHT22;10710;53.398;-1.514;2023-03-14T10:33:31;7.10;99.90
21104;DHT22;10710;53.398;-1.514;2023-03-14T10:36:22;7.20;99.90
21104;DHT22;10710;53.398;-1.514;2023-03-14T10:42:21;7.40;99.90
21104;DHT22;10710;53.398;-1.514;2023-03-14T10:48:29;7.40;99.90
21104;DHT22;10710;53.398;-1.514;2023-03-14T10:51:29;7.40;99.90
21104;DHT22;10710;53.398;-1.514;2023-03-14T10:54:20;7.50;99.90
21104;DHT22;10710;53.398;-1.514;2023-03-14T10:57:04;7.70;99.90
21104;DHT22;10710;53.398;-1.514;2023-03-14T10:59:51;8.00;99.90
21104;DHT22;10710;53.398;-1.514;2023-03-14T11:03:00;8.60;99.90
21104;DHT22;10710;53.398;-1.514;2023-03-14T11:06:11;8.60;99.90
21104;DHT22;10710;53.398;-1.514;2023-03-14T11:09:41;8.20;99.90
21104;DHT22;10710;53.398;-1.514;2023-03-14T11:21:55;6.90;99.90
21104;DHT22;10710;53.398;-1.514;2023-03-14T11:30:55;6.00;99.90
21104;DHT22;10710;53.398;-1.514;2023-03-14T11:36:56;5.30;99.90
21104;DHT22;10710;53.398;-1.514;2023-03-14T11:39:50;5.20;99.90
21104;DHT22;10710;53.398;-1.514;2023-03-14T11:42:35;5.30;99.90
21104;DHT22;10710;53.398;-1.514;2023-03-14T11:45:25;5.50;99.90
21104;DHT22;10710;53.398;-1.514;2023-03-14T11:48:29;5.50;99.90
21104;DHT22;10710;53.398;-1.514;2023-03-14T11:51:26;5.50;99.90
21104;DHT22;10710;53.398;-1.514;2023-03-14T11:54:52;5.70;99.90
21104;DHT22;10710;53.398;-1.514;2023-03-14T11:57:31;5.90;99.90
21104;DHT22;10710;53.398;-1.514;2023-03-14T12:00:23;6.00;99.90
21104;DHT22;10710;53.398;-1.514;2023-03-14T12:03:40;6.00;99.90
21104;DHT22;10710;53.398;-1.514;2023-03-14T12:06:37;6.20;99.90
21104;DHT22;10710;53.398;-1.514;2023-03-14T12:09:25;6.40;99.90
21104;DHT22;10710;53.398;-1.514;2023-03-14T12:12:12;6.60;99.90
21104;DHT22;10710;53.398;-1.514;2023-03-14T12:15:00;6.70;99.90
21104;DHT22;10710;53.398;-1.514;2023-03-14T12:17:45;6.80;99.90
21104;DHT22;10710;53.398;-1.514;2023-03-14T12:20:30;6.90;99.90
21104;DHT22;10710;53.398;-1.514;2023-03-14T12:23:14;6.80;99.90
21104;DHT22;10710;53.398;-1.514;2023-03-14T12:26:15;6.90;99.90
21104;DHT22;10710;53.398;-1.514;2023-03-14T12:34:44;7.00;99.90
21104;DHT22;10710;53.398;-1.514;2023-03-14T12:37:42;7.10;99.90
21104;DHT22;10710;53.398;-1.514;2023-03-14T12:40:39;7.10;99.90
21104;DHT22;10710;53.398;-1.514;2023-03-14T12:43:26;7.10;99.90
21104;DHT22;10710;53.398;-1.514;2023-03-14T12:51:46;7.40;99.90
21104;DHT22;10710;53.398;-1.514;2023-03-14T12:54:51;7.60;99.90
21104;DHT22;10710;53.398;-1.514;2023-03-14T12:57:55;7.60;99.90
21104;DHT22;10710;53.398;-1.514;2023-03-14T13:00:43;7.60;99.90
21104;DHT22;10710;53.398;-1.514;2023-03-14T13:03:39;7.70;99.90
21104;DHT22;10710;53.398;-1.514;2023-03-14T13:06:55;7.70;99.90
21104;DHT22;10710;53.398;-1.514;2023-03-14T13:09:53;7.50;99.90
21104;DHT22;10710;53.398;-1.514;2023-03-14T13:12:48;7.60;99.90
21104;DHT22;10710;53.398;-1.514;2023-03-14T13:15:38;7.70;99.90
21104;DHT22;10710;53.398;-1.514;2023-03-14T13:18:43;7.90;99.90
21104;DHT22;10710;53.398;-1.514;2023-03-14T13:21:34;8.10;99.90
21104;DHT22;10710;53.398;-1.514;2023-03-14T13:24:26;8.30;99.90
21104;DHT22;10710;53.398;-1.514;2023-03-14T13:27:18;8.40;99.90
21104;DHT22;10710;53.398;-1.514;2023-03-14T13:33:03;7.90;99.90
21104;DHT22;10710;53.398;-1.514;2023-03-14T13:38:40;7.70;99.90
21104;DHT22;10710;53.398;-1.514;2023-03-14T13:41:26;7.50;99.90
21104;DHT22;10710;53.398;-1.514;2023-03-14T13:44:33;7.70;99.90
21104;DHT22;10710;53.398;-1.514;2023-03-14T13:47:19;7.70;99.90
21104;DHT22;10710;53.398;-1.514;2023-03-14T13:50:05;8.10;99.90
21104;DHT22;10710;53.398;-1.514;2023-03-14T13:52:55;8.30;99.90
21104;DHT22;10710;53.398;-1.514;2023-03-14T13:55:40;8.30;99.90
21104;DHT22;10710;53.398;-1.514;2023-03-14T14:01:27;7.70;99.90
21104;DHT22;10710;53.398;-1.514;2023-03-14T14:04:18;7.60;99.90
21104;DHT22;10710;53.398;-1.514;2023-03-14T14:07:12;7.70;99.90
21104;DHT22;10710;53.398;-1.514;2023-03-14T14:10:00;7.80;99.90
21104;DHT22;10710;53.398;-1.514;2023-03-14T14:15:41;7.30;99.90
21104;DHT22;10710;53.398;-1.514;2023-03-14T14:18:27;6.90;99.90
21104;DHT22;10710;53.398;-1.514;2023-03-14T14:21:13;6.60;99.90
21104;DHT22;10710;53.398;-1.514;2023-03-14T14:23:58;6.20;99.90
21104;DHT22;10710;53.398;-1.514;2023-03-14T14:26:51;6.20;99.90
21104;DHT22;10710;53.398;-1.514;2023-03-14T14:29:36;6.20;99.90
21104;DHT22;10710;53.398;-1.514;2023-03-14T14:32:20;6.30;99.90
21104;DHT22;10710;53.398;-1.514;2023-03-14T14:35:06;6.30;99.90
21104;DHT22;10710;53.398;-1.514;2023-03-14T14:37:51;6.00;99.90
21104;DHT22;10710;53.398;-1.514;2023-03-14T14:40:44;5.90;99.90
21104;DHT22;10710;53.398;-1.514;2023-03-14T14:43:31;6.00;99.90
21104;DHT22;10710;53.398;-1.514;2023-03-14T14:46:18;6.00;99.90
21104;DHT22;10710;53.398;-1.514;2023-03-14T14:49:08;5.90;99.90
21104;DHT22;10710;53.398;-1.514;2023-03-14T14:52:05;5.90;99.90
21104;DHT22;10710;53.398;-1.514;2023-03-14T14:54:53;5.70;99.90
21104;DHT22;10710;53.398;-1.514;2023-03-14T14:57:41;5.60;99.90
21104;DHT22;10710;53.398;-1.514;2023-03-14T15:00:31;5.50;99.90
21104;DHT22;10710;53.398;-1.514;2023-03-14T15:03:16;5.50;99.90
21104;DHT22;10710;53.398;-1.514;2023-03-14T15:06:02;5.50;99.90
21104;DHT22;10710;53.398;-1.514;2023-03-14T15:08:48;5.60;99.90
21104;DHT22;10710;53.398;-1.514;2023-03-14T15:11:32;5.50;99.90
21104;DHT22;10710;53.398;-1.514;2023-03-14T15:14:17;5.50;99.90
21104;DHT22;10710;53.398;-1.514;2023-03-14T15:17:02;5.40;99.90
21104;DHT22;10710;53.398;-1.514;2023-03-14T15:19:46;5.40;99.90
21104;DHT22;10710;53.398;-1.514;2023-03-14T15:22:31;5.50;99.90
21104;DHT22;10710;53.398;-1.514;2023-03-14T15:25:16;5.00;99.90
21104;DHT22;10710;53.398;-1.514;2023-03-14T15:28:01;4.90;99.90
21104;DHT22;10710;53.398;-1.514;2023-03-14T15:30:49;5.10;99.90
21104;DHT22;10710;53.398;-1.514;2023-03-14T15:33:34;5.30;99.90
21104;DHT22;10710;53.398;-1.514;2023-03-14T15:36:26;5.50;99.90
21104;DHT22;10710;53.398;-1.514;2023-03-14T15:39:11;5.70;99.90
21104;DHT22;10710;53.398;-1.514;2023-03-14T15:41:56;5.90;99.90
21104;DHT22;10710;53.398;-1.514;2023-03-14T15:44:40;6.20;99.90
21104;DHT22;10710;53.398;-1.514;2023-03-14T15:47:24;6.20;99.90
21104;DHT22;10710;53.398;-1.514;2023-03-14T15:50:12;6.10;99.90
21104;DHT22;10710;53.398;-1.514;2023-03-14T15:52:56;6.00;99.90
21104;DHT22;10710;53.398;-1.514;2023-03-14T15:55:41;5.90;99.90
21104;DHT22;10710;53.398;-1.514;2023-03-14T15:58:26;5.70;99.90
21104;DHT22;10710;53.398;-1.514;2023-03-14T16:01:10;5.80;99.90
21104;DHT22;10710;53.398;-1.514;2023-03-14T16:03:55;5.80;99.90
21104;DHT22;10710;53.398;-1.514;2023-03-14T16:06:39;6.10;99.90
21104;DHT22;10710;53.398;-1.514;2023-03-14T16:09:25;6.20;99.90
21104;DHT22;10710;53.398;-1.514;2023-03-14T16:12:10;6.30;99.90
21104;DHT22;10710;53.398;-1.514;2023-03-14T16:14:54;6.30;99.90
21104;DHT22;10710;53.398;-1.514;2023-03-14T16:17:38;6.10;99.90
21104;DHT22;10710;53.398;-1.514;2023-03-14T16:20:24;6.00;99.90
21104;DHT22;10710;53.398;-1.514;2023-03-14T16:23:09;6.10;99.90
21104;DHT22;10710;53.398;-1.514;2023-03-14T16:25:54;6.20;99.90
21104;DHT22;10710;53.398;-1.514;2023-03-14T16:28:38;6.30;99.90
21104;DHT22;10710;53.398;-1.514;2023-03-14T16:31:23;6.20;99.90
21104;DHT22;10710;53.398;-1.514;2023-03-14T16:34:09;6.10;99.90
21104;DHT22;10710;53.398;-1.514;2023-03-14T16:36:53;5.90;99.90
21104;DHT22;10710;53.398;-1.514;2023-03-14T16:39:38;5.80;99.90
21104;DHT22;10710;53.398;-1.514;2023-03-14T16:42:23;5.70;99.90
21104;DHT22;10710;53.398;-1.514;2023-03-14T16:45:08;5.60;99.90
21104;DHT22;10710;53.398;-1.514;2023-03-14T16:47:53;5.60;99.90
21104;DHT22;10710;53.398;-1.514;2023-03-14T16:50:39;5.60;99.90
21104;DHT22;10710;53.398;-1.514;2023-03-14T16:53:24;5.50;99.90
21104;DHT22;10710;53.398;-1.514;2023-03-14T16:56:10;5.50;99.90
21104;DHT22;10710;53.398;-1.514;2023-03-14T16:58:55;5.50;99.90
21104;DHT22;10710;53.398;-1.514;2023-03-14T17:01:39;5.50;99.90
21104;DHT22;10710;53.398;-1.514;2023-03-14T17:04:26;5.50;99.90
21104;DHT22;10710;53.398;-1.514;2023-03-14T17:07:10;5.30;99.90
21104;DHT22;10710;53.398;-1.514;2023-03-14T17:09:54;5.30;99.90
21104;DHT22;10710;53.398;-1.514;2023-03-14T17:12:38;5.40;99.90
21104;DHT22;10710;53.398;-1.514;2023-03-14T17:15:22;5.40;99.90
21104;DHT22;10710;53.398;-1.514;2023-03-14T17:18:06;5.30;99.90
21104;DHT22;10710;53.398;-1.514;2023-03-14T17:20:51;5.20;99.90
21104;DHT22;10710;53.398;-1.514;2023-03-14T17:23:36;5.30;99.90
21104;DHT22;10710;53.398;-1.514;2023-03-14T17:26:20;5.30;99.90
21104;DHT22;10710;53.398;-1.514;2023-03-14T17:29:04;5.40;99.90
21104;DHT22;10710;53.398;-1.514;2023-03-14T17:31:48;5.40;99.90
21104;DHT22;10710;53.398;-1.514;2023-03-14T17:34:33;5.30;99.90
21104;DHT22;10710;53.398;-1.514;2023-03-14T17:37:17;5.30;99.90
21104;DHT22;10710;53.398;-1.514;2023-03-14T17:40:01;5.30;99.90
21104;DHT22;10710;53.398;-1.514;2023-03-14T17:42:47;5.30;99.90
21104;DHT22;10710;53.398;-1.514;2023-03-14T17:45:32;5.40;99.90
21104;DHT22;10710;53.398;-1.514;2023-03-14T17:48:16;5.40;99.90
21104;DHT22;10710;53.398;-1.514;2023-03-14T17:51:00;5.30;99.90
21104;DHT22;10710;53.398;-1.514;2023-03-14T17:53:45;5.30;99.90
21104;DHT22;10710;53.398;-1.514;2023-03-14T17:56:30;5.20;99.90
21104;DHT22;10710;53.398;-1.514;2023-03-14T17:59:14;5.20;99.90
21104;DHT22;10710;53.398;-1.514;2023-03-14T18:01:59;5.30;99.90
21104;DHT22;10710;53.398;-1.514;2023-03-14T18:04:43;5.20;99.90
21104;DHT22;10710;53.398;-1.514;2023-03-14T18:07:27;5.20;99.90
21104;DHT22;10710;53.398;-1.514;2023-03-14T18:10:11;5.20;99.90
21104;DHT22;10710;53.398;-1.514;2023-03-14T18:12:57;5.20;99.90